createdAt,value
2023-07-16T00:00:28.603Z,77
2023-07-16T00:10:28.790Z,77
2023-07-16T00:20:28.979Z,79
2023-07-16T00:30:29.221Z,79
2023-07-16T00:50:29.589Z,81
2023-07-16T01:00:29.780Z,81
2023-07-16T01:10:29.971Z,82
2023-07-16T01:30:30.398Z,83
2023-07-16T01:50:30.728Z,84
2023-07-16T02:20:31.324Z,85
2023-07-16T02:30:31.521Z,86
2023-07-16T02:40:31.715Z,86
2023-07-16T02:50:31.914Z,86
2023-07-16T03:00:32.124Z,86
2023-07-16T03:10:32.298Z,86
2023-07-16T03:20:32.505Z,86
2023-07-16T03:30:32.695Z,86
2023-07-16T03:40:32.903Z,86
2023-07-16T03:50:33.092Z,86
2023-07-16T04:00:33.270Z,85
2023-07-16T04:10:33.474Z,84
2023-07-16T04:20:33.739Z,81
2023-07-16T04:30:33.890Z,79
2023-07-16T04:40:34.066Z,77
2023-07-16T04:50:34.266Z,76
2023-07-16T05:00:34.473Z,74
2023-07-16T05:10:34.643Z,72
2023-07-16T05:20:34.850Z,71
2023-07-16T05:30:35.023Z,69
2023-07-16T05:40:35.304Z,68
2023-07-16T05:50:35.437Z,67
2023-07-16T06:00:35.625Z,66
2023-07-16T06:10:35.810Z,65
2023-07-16T06:20:36.028Z,63
2023-07-16T06:30:36.208Z,63
2023-07-16T06:40:36.401Z,63
2023-07-16T06:50:36.630Z,62
2023-07-16T07:00:36.783Z,60
2023-07-16T07:10:36.995Z,60
2023-07-16T07:20:37.201Z,60
2023-07-16T07:30:37.392Z,60
2023-07-16T07:40:37.575Z,59
2023-07-16T07:50:37.785Z,59
2023-07-16T08:00:37.969Z,58
2023-07-16T08:10:38.168Z,58
2023-07-16T08:20:38.364Z,57
2023-07-16T08:30:38.543Z,56
2023-07-16T08:40:38.772Z,56
2023-07-16T08:50:38.932Z,55
2023-07-16T09:00:39.144Z,56
2023-07-16T09:10:39.342Z,53
2023-07-16T09:20:39.517Z,54
2023-07-16T09:30:39.724Z,53
2023-07-16T09:40:39.943Z,53
2023-07-16T09:50:40.110Z,52
2023-07-16T10:00:40.315Z,52
2023-07-16T10:10:40.505Z,53
2023-07-16T10:20:40.709Z,52
2023-07-16T10:30:40.896Z,52
2023-07-16T10:40:41.110Z,51
2023-07-16T10:50:41.288Z,51
2023-07-16T11:00:41.465Z,51
2023-07-16T11:10:41.675Z,52
2023-07-16T11:30:42.057Z,52
2023-07-16T11:40:42.281Z,52
2023-07-16T11:50:42.460Z,50
2023-07-16T12:10:42.859Z,50
2023-07-16T12:20:43.039Z,51
2023-07-16T12:30:43.245Z,51
2023-07-16T12:40:43.454Z,51
2023-07-16T12:50:43.625Z,51
2023-07-16T13:00:45.733Z,51
2023-07-16T13:10:44.041Z,50
2023-07-16T13:20:44.270Z,50
2023-07-16T13:30:44.478Z,49
2023-07-16T13:40:44.660Z,48
2023-07-16T13:50:44.798Z,47
2023-07-16T14:00:44.993Z,46
2023-07-16T14:10:45.187Z,45
2023-07-16T14:20:45.368Z,47
2023-07-16T14:40:45.835Z,47
2023-07-16T14:50:45.975Z,47
2023-07-16T15:00:46.224Z,45
2023-07-16T15:10:46.369Z,45
2023-07-16T15:20:47.662Z,44
2023-07-16T15:30:46.853Z,45
2023-07-16T15:40:47.236Z,45
2023-07-16T15:50:47.133Z,45
2023-07-16T16:00:47.361Z,46
2023-07-16T16:10:47.528Z,45
2023-07-16T16:20:47.718Z,45
2023-07-16T16:30:47.981Z,46
2023-07-16T16:40:48.133Z,46
2023-07-16T16:50:48.315Z,46
2023-07-16T17:00:49.108Z,46
2023-07-16T17:10:48.736Z,46
2023-07-16T17:20:48.916Z,46
2023-07-16T17:40:49.281Z,47
2023-07-16T17:50:49.475Z,48
2023-07-16T18:00:49.680Z,49
2023-07-16T18:10:49.879Z,49
2023-07-16T18:20:50.315Z,51
2023-07-16T18:30:50.276Z,55
2023-07-16T18:40:50.458Z,57
2023-07-16T18:50:50.647Z,59
2023-07-16T19:00:50.849Z,60
2023-07-16T19:10:51.052Z,61
2023-07-16T19:20:51.251Z,61
2023-07-16T19:30:51.441Z,63
2023-07-16T19:40:51.625Z,62
2023-07-16T19:50:51.823Z,62
2023-07-16T20:00:52.080Z,62
2023-07-16T20:10:52.236Z,62
2023-07-16T20:20:52.423Z,62
2023-07-16T20:30:52.599Z,62
2023-07-16T20:40:52.839Z,62
2023-07-16T20:50:53.017Z,62
2023-07-16T21:10:53.374Z,62
2023-07-16T21:40:53.976Z,61
2023-07-16T21:50:54.157Z,61
2023-07-16T22:00:54.368Z,61
2023-07-16T22:30:55.011Z,62
2023-07-16T22:50:55.368Z,62
2023-07-16T23:00:55.531Z,63
2023-07-16T23:10:55.762Z,65
2023-07-16T23:20:55.918Z,67
2023-07-16T23:30:56.201Z,68
2023-07-16T23:40:56.309Z,69
2023-07-16T23:50:56.527Z,69
